Gold Creek, Montana
Current Conditions -  °F | °C
As of 5:53 AM on Tuesday 21 Oct 2014 (Local Time) from KHLN Reporting Station
Scattered Clouds Scattered Clouds  
Wind Chill: 47°   Ceiling: Unl
Heat Index: 47°   Visibility: 10mi
Dew Point: 36°   Wind: 0mph
Humidity: 66%   Direction: NA
Pressure: 29.72"   Gusts: NA
Location:  46.57°N, 112.96°W
Report Text: KHLN 211153Z 00000KT 10SM SCT100 08/02 A2972 RMK AO2 SLP056 T00830022 10128 20083 51000
Loading
Personal Weather Stations






























Interactive Weather Map
Tropical Storm Tracking
New forecast layout! Learn more

10-Day Weather Forecast

Advertisements
Track Severe Weather on mobile